sensor_id;sensor_type;location;lat;lon;timestamp;temperature;humidity
21121;DHT22;12519;43.318;21.898;2022-09-09T00:04:38;25.1;78.0
21121;DHT22;12519;43.318;21.898;2022-09-09T00:09:25;25.1;78.0
21121;DHT22;12519;43.318;21.898;2022-09-09T00:14:39;25.1;78.0
21121;DHT22;12519;43.318;21.898;2022-09-09T00:19:47;25.1;78.0
21121;DHT22;12519;43.318;21.898;2022-09-09T00:39:42;25.1;78.0
21121;DHT22;12519;43.318;21.898;2022-09-09T00:44:37;25.1;78.0
21121;DHT22;12519;43.318;21.898;2022-09-09T00:50:00;25.1;78.0
21121;DHT22;12519;43.318;21.898;2022-09-09T00:55:13;25.1;78.0
21121;DHT22;12519;43.318;21.898;2022-09-09T01:00:24;25.1;78.0
21121;DHT22;12519;43.318;21.898;2022-09-09T01:05:33;25.1;78.0
21121;DHT22;12519;43.318;21.898;2022-09-09T01:10:50;25.1;78.0
21121;DHT22;12519;43.318;21.898;2022-09-09T01:15:35;25.0;78.0
21121;DHT22;12519;43.318;21.898;2022-09-09T01:20:32;25.0;78.0
21121;DHT22;12519;43.318;21.898;2022-09-09T01:26:26;25.0;78.0
21121;DHT22;12519;43.318;21.898;2022-09-09T01:31:22;25.0;78.0
21121;DHT22;12519;43.318;21.898;2022-09-09T01:36:19;25.0;78.0
21121;DHT22;12519;43.318;21.898;2022-09-09T01:41:06;25.0;78.0
21121;DHT22;12519;43.318;21.898;2022-09-09T01:45:47;24.9;78.0
21121;DHT22;12519;43.318;21.898;2022-09-09T01:50:32;24.9;78.0
21121;DHT22;12519;43.318;21.898;2022-09-09T01:55:11;24.9;78.0
21121;DHT22;12519;43.318;21.898;2022-09-09T02:00:09;24.9;78.0
21121;DHT22;12519;43.318;21.898;2022-09-09T02:05:22;24.9;78.0
21121;DHT22;12519;43.318;21.898;2022-09-09T02:10:45;24.9;78.0
21121;DHT22;12519;43.318;21.898;2022-09-09T02:15:58;24.8;78.0
21121;DHT22;12519;43.318;21.898;2022-09-09T02:20:55;24.8;78.0
21121;DHT22;12519;43.318;21.898;2022-09-09T02:25:41;24.8;78.0
21121;DHT22;12519;43.318;21.898;2022-09-09T02:30:23;24.8;78.0
21121;DHT22;12519;43.318;21.898;2022-09-09T02:35:20;24.8;78.0
21121;DHT22;12519;43.318;21.898;2022-09-09T02:40:10;24.8;78.0
21121;DHT22;12519;43.318;21.898;2022-09-09T02:44:51;24.8;78.0
21121;DHT22;12519;43.318;21.898;2022-09-09T02:49:58;24.8;78.0
21121;DHT22;12519;43.318;21.898;2022-09-09T02:55:12;24.8;78.0
21121;DHT22;12519;43.318;21.898;2022-09-09T03:00:10;24.8;78.0
21121;DHT22;12519;43.318;21.898;2022-09-09T03:04:48;24.7;78.0
21121;DHT22;12519;43.318;21.898;2022-09-09T03:09:25;24.7;78.0
21121;DHT22;12519;43.318;21.898;2022-09-09T03:14:02;24.7;78.0
21121;DHT22;12519;43.318;21.898;2022-09-09T03:18:39;24.7;78.0
21121;DHT22;12519;43.318;21.898;2022-09-09T03:23:16;24.7;78.0
21121;DHT22;12519;43.318;21.898;2022-09-09T03:27:56;24.7;78.0
21121;DHT22;12519;43.318;21.898;2022-09-09T03:32:33;24.7;78.0
21121;DHT22;12519;43.318;21.898;2022-09-09T03:37:10;24.7;78.0
21121;DHT22;12519;43.318;21.898;2022-09-09T03:41:47;24.7;78.0
21121;DHT22;12519;43.318;21.898;2022-09-09T03:46:26;24.7;78.0
21121;DHT22;12519;43.318;21.898;2022-09-09T03:51:03;24.7;78.0
21121;DHT22;12519;43.318;21.898;2022-09-09T03:55:44;24.6;78.0
21121;DHT22;12519;43.318;21.898;2022-09-09T04:00:21;24.6;78.0
21121;DHT22;12519;43.318;21.898;2022-09-09T04:04:58;24.5;78.0
21121;DHT22;12519;43.318;21.898;2022-09-09T04:09:34;24.5;78.0
21121;DHT22;12519;43.318;21.898;2022-09-09T04:14:11;24.5;78.0
21121;DHT22;12519;43.318;21.898;2022-09-09T04:18:48;24.0;79.0
21121;DHT22;12519;43.318;21.898;2022-09-09T04:23:28;24.0;79.0
21121;DHT22;12519;43.318;21.898;2022-09-09T04:28:05;23.6;79.0
21121;DHT22;12519;43.318;21.898;2022-09-09T04:32:42;23.6;79.0
21121;DHT22;12519;43.318;21.898;2022-09-09T04:37:19;23.6;80.0
21121;DHT22;12519;43.318;21.898;2022-09-09T04:41:56;23.6;80.0
21121;DHT22;12519;43.318;21.898;2022-09-09T04:46:33;23.6;80.0
21121;DHT22;12519;43.318;21.898;2022-09-09T04:51:14;23.6;80.0
21121;DHT22;12519;43.318;21.898;2022-09-09T04:56:04;23.6;80.0
21121;DHT22;12519;43.318;21.898;2022-09-09T05:00:48;23.6;80.0
21121;DHT22;12519;43.318;21.898;2022-09-09T05:05:25;23.7;80.0
21121;DHT22;12519;43.318;21.898;2022-09-09T05:10:04;23.7;80.0
21121;DHT22;12519;43.318;21.898;2022-09-09T05:14:43;23.7;80.0
21121;DHT22;12519;43.318;21.898;2022-09-09T05:19:20;23.5;81.0
21121;DHT22;12519;43.318;21.898;2022-09-09T05:23:57;23.5;81.0
21121;DHT22;12519;43.318;21.898;2022-09-09T05:28:35;23.3;82.0
21121;DHT22;12519;43.318;21.898;2022-09-09T05:33:12;23.3;82.0
21121;DHT22;12519;43.318;21.898;2022-09-09T05:37:49;23.5;81.0
21121;DHT22;12519;43.318;21.898;2022-09-09T05:42:31;23.5;81.0
21121;DHT22;12519;43.318;21.898;2022-09-09T05:47:07;23.6;81.0
21121;DHT22;12519;43.318;21.898;2022-09-09T05:51:44;23.6;81.0
21121;DHT22;12519;43.318;21.898;2022-09-09T05:56:27;24.0;81.0
21121;DHT22;12519;43.318;21.898;2022-09-09T06:01:11;24.0;81.0
21121;DHT22;12519;43.318;21.898;2022-09-09T06:06:01;24.5;80.0
21121;DHT22;12519;43.318;21.898;2022-09-09T06:10:41;24.5;80.0
21121;DHT22;12519;43.318;21.898;2022-09-09T06:15:17;24.7;79.0
21121;DHT22;12519;43.318;21.898;2022-09-09T06:19:54;24.7;79.0
21121;DHT22;12519;43.318;21.898;2022-09-09T06:24:30;24.7;79.0
21121;DHT22;12519;43.318;21.898;2022-09-09T06:29:09;24.9;79.0
21121;DHT22;12519;43.318;21.898;2022-09-09T06:33:50;24.9;79.0
21121;DHT22;12519;43.318;21.898;2022-09-09T06:38:30;24.8;79.0
21121;DHT22;12519;43.318;21.898;2022-09-09T06:43:07;24.8;79.0
21121;DHT22;12519;43.318;21.898;2022-09-09T06:47:43;24.7;78.0
21121;DHT22;12519;43.318;21.898;2022-09-09T06:52:20;24.7;78.0
21121;DHT22;12519;43.318;21.898;2022-09-09T06:56:57;24.6;79.0
21121;DHT22;12519;43.318;21.898;2022-09-09T07:01:39;24.6;79.0
21121;DHT22;12519;43.318;21.898;2022-09-09T07:06:24;24.6;79.0
21121;DHT22;12519;43.318;21.898;2022-09-09T07:11:10;24.6;79.0
21121;DHT22;12519;43.318;21.898;2022-09-09T07:15:46;24.8;79.0
21121;DHT22;12519;43.318;21.898;2022-09-09T07:20:24;24.8;79.0
21121;DHT22;12519;43.318;21.898;2022-09-09T07:25:01;24.8;79.0
21121;DHT22;12519;43.318;21.898;2022-09-09T07:29:41;24.9;79.0
21121;DHT22;12519;43.318;21.898;2022-09-09T07:34:19;24.9;79.0
21121;DHT22;12519;43.318;21.898;2022-09-09T07:39:04;25.0;78.0
21121;DHT22;12519;43.318;21.898;2022-09-09T07:43:53;25.0;78.0
21121;DHT22;12519;43.318;21.898;2022-09-09T07:48:31;25.1;78.0
21121;DHT22;12519;43.318;21.898;2022-09-09T07:53:09;25.1;78.0
21121;DHT22;12519;43.318;21.898;2022-09-09T07:57:47;25.0;78.0
21121;DHT22;12519;43.318;21.898;2022-09-09T08:02:24;25.0;78.0
21121;DHT22;12519;43.318;21.898;2022-09-09T08:07:03;24.9;78.0
21121;DHT22;12519;43.318;21.898;2022-09-09T08:11:44;24.9;78.0
21121;DHT22;12519;43.318;21.898;2022-09-09T08:16:28;24.5;79.0
21121;DHT22;12519;43.318;21.898;2022-09-09T08:21:18;24.5;79.0
21121;DHT22;12519;43.318;21.898;2022-09-09T08:26:10;24.1;81.0
21121;DHT22;12519;43.318;21.898;2022-09-09T08:30:46;24.1;81.0
21121;DHT22;12519;43.318;21.898;2022-09-09T08:35:22;24.1;81.0
21121;DHT22;12519;43.318;21.898;2022-09-09T08:39:59;24.0;82.0
21121;DHT22;12519;43.318;21.898;2022-09-09T08:45:18;24.0;82.0
21121;DHT22;12519;43.318;21.898;2022-09-09T08:50:25;23.9;84.0
21121;DHT22;12519;43.318;21.898;2022-09-09T08:55:37;23.9;84.0
21121;DHT22;12519;43.318;21.898;2022-09-09T09:00:22;23.6;85.0
21121;DHT22;12519;43.318;21.898;2022-09-09T09:05:37;23.4;87.0
21121;DHT22;12519;43.318;21.898;2022-09-09T09:10:49;23.4;87.0
21121;DHT22;12519;43.318;21.898;2022-09-09T09:15:41;23.4;88.0
21121;DHT22;12519;43.318;21.898;2022-09-09T09:20:56;23.4;88.0
21121;DHT22;12519;43.318;21.898;2022-09-09T09:25:45;23.3;89.0
21121;DHT22;12519;43.318;21.898;2022-09-09T09:30:36;23.3;89.0
21121;DHT22;12519;43.318;21.898;2022-09-09T09:35:19;23.3;89.0
21121;DHT22;12519;43.318;21.898;2022-09-09T09:40:07;23.1;90.0
21121;DHT22;12519;43.318;21.898;2022-09-09T09:44:46;23.1;90.0
21121;DHT22;12519;43.318;21.898;2022-09-09T09:49:23;22.9;92.0
21121;DHT22;12519;43.318;21.898;2022-09-09T09:54:31;22.9;92.0
21121;DHT22;12519;43.318;21.898;2022-09-09T09:59:35;22.8;92.0
21121;DHT22;12519;43.318;21.898;2022-09-09T10:04:22;22.8;92.0
21121;DHT22;12519;43.318;21.898;2022-09-09T10:09:24;22.6;92.0
21121;DHT22;12519;43.318;21.898;2022-09-09T10:14:35;22.6;92.0
21121;DHT22;12519;43.318;21.898;2022-09-09T10:20:37;22.8;92.0
21121;DHT22;12519;43.318;21.898;2022-09-09T10:26:38;22.9;92.0
21121;DHT22;12519;43.318;21.898;2022-09-09T10:32:37;22.9;92.0
21121;DHT22;12519;43.318;21.898;2022-09-09T10:38:14;23.2;91.0
21121;DHT22;12519;43.318;21.898;2022-09-09T10:43:40;23.2;91.0
21121;DHT22;12519;43.318;21.898;2022-09-09T10:49:52;23.6;90.0
21121;DHT22;12519;43.318;21.898;2022-09-09T10:55:18;23.6;90.0
21121;DHT22;12519;43.318;21.898;2022-09-09T11:00:20;23.8;89.0
21121;DHT22;12519;43.318;21.898;2022-09-09T11:05:20;23.8;89.0
21121;DHT22;12519;43.318;21.898;2022-09-09T11:10:34;24.0;88.0
21121;DHT22;12519;43.318;21.898;2022-09-09T11:15:39;24.0;88.0
21121;DHT22;12519;43.318;21.898;2022-09-09T11:20:23;24.2;87.0
21121;DHT22;12519;43.318;21.898;2022-09-09T11:25:20;24.2;87.0
21121;DHT22;12519;43.318;21.898;2022-09-09T11:30:21;24.3;85.0
21121;DHT22;12519;43.318;21.898;2022-09-09T11:35:47;24.3;85.0
21121;DHT22;12519;43.318;21.898;2022-09-09T11:40:42;24.4;85.0
21121;DHT22;12519;43.318;21.898;2022-09-09T11:45:28;24.4;85.0
21121;DHT22;12519;43.318;21.898;2022-09-09T11:50:31;24.4;84.0
21121;DHT22;12519;43.318;21.898;2022-09-09T11:55:30;24.4;84.0
21121;DHT22;12519;43.318;21.898;2022-09-09T12:00:39;24.4;84.0
21121;DHT22;12519;43.318;21.898;2022-09-09T12:05:19;24.4;84.0
21121;DHT22;12519;43.318;21.898;2022-09-09T12:10:24;24.4;84.0
21121;DHT22;12519;43.318;21.898;2022-09-09T12:15:29;24.4;84.0
21121;DHT22;12519;43.318;21.898;2022-09-09T12:20:19;24.7;84.0
21121;DHT22;12519;43.318;21.898;2022-09-09T12:25:33;24.7;84.0
21121;DHT22;12519;43.318;21.898;2022-09-09T12:30:49;25.0;83.0
21121;DHT22;12519;43.318;21.898;2022-09-09T12:35:56;25.0;83.0
21121;DHT22;12519;43.318;21.898;2022-09-09T12:40:35;25.2;82.0
21121;DHT22;12519;43.318;21.898;2022-09-09T12:45:24;25.2;82.0
21121;DHT22;12519;43.318;21.898;2022-09-09T12:50:23;25.4;81.0
21121;DHT22;12519;43.318;21.898;2022-09-09T12:55:25;25.4;81.0
21121;DHT22;12519;43.318;21.898;2022-09-09T13:00:24;25.4;82.0
21121;DHT22;12519;43.318;21.898;2022-09-09T13:05:23;25.4;82.0
21121;DHT22;12519;43.318;21.898;2022-09-09T13:10:22;25.5;82.0
21121;DHT22;12519;43.318;21.898;2022-09-09T13:15:29;25.5;82.0
21121;DHT22;12519;43.318;21.898;2022-09-09T13:20:21;25.6;82.0
21121;DHT22;12519;43.318;21.898;2022-09-09T13:25:22;25.6;82.0
21121;DHT22;12519;43.318;21.898;2022-09-09T13:30:29;25.8;81.0
21121;DHT22;12519;43.318;21.898;2022-09-09T13:35:24;25.8;81.0
21121;DHT22;12519;43.318;21.898;2022-09-09T13:40:17;25.7;81.0
21121;DHT22;12519;43.318;21.898;2022-09-09T13:45:00;25.7;81.0
21121;DHT22;12519;43.318;21.898;2022-09-09T13:49:38;25.6;81.0
21121;DHT22;12519;43.318;21.898;2022-09-09T13:54:20;25.6;81.0
21121;DHT22;12519;43.318;21.898;2022-09-09T13:58:57;25.6;81.0
21121;DHT22;12519;43.318;21.898;2022-09-09T14:03:33;25.6;81.0
21121;DHT22;12519;43.318;21.898;2022-09-09T14:08:26;25.6;80.0
21121;DHT22;12519;43.318;21.898;2022-09-09T14:13:03;25.6;80.0
21121;DHT22;12519;43.318;21.898;2022-09-09T14:17:40;25.5;80.0
21121;DHT22;12519;43.318;21.898;2022-09-09T14:22:17;25.5;80.0
21121;DHT22;12519;43.318;21.898;2022-09-09T14:26:56;25.3;80.0
21121;DHT22;12519;43.318;21.898;2022-09-09T14:31:33;25.3;80.0
21121;DHT22;12519;43.318;21.898;2022-09-09T14:36:11;25.3;80.0
21121;DHT22;12519;43.318;21.898;2022-09-09T14:40:48;25.2;80.0
21121;DHT22;12519;43.318;21.898;2022-09-09T14:45:25;25.2;80.0
21121;DHT22;12519;43.318;21.898;2022-09-09T14:50:05;25.2;81.0
21121;DHT22;12519;43.318;21.898;2022-09-09T14:54:42;25.2;81.0
21121;DHT22;12519;43.318;21.898;2022-09-09T14:59:19;25.4;80.0
21121;DHT22;12519;43.318;21.898;2022-09-09T15:04:03;25.4;80.0
21121;DHT22;12519;43.318;21.898;2022-09-09T15:08:46;25.5;80.0
21121;DHT22;12519;43.318;21.898;2022-09-09T15:13:28;25.5;80.0
21121;DHT22;12519;43.318;21.898;2022-09-09T15:18:05;25.5;80.0
21121;DHT22;12519;43.318;21.898;2022-09-09T15:22:43;25.5;80.0
21121;DHT22;12519;43.318;21.898;2022-09-09T15:27:20;25.5;80.0
21121;DHT22;12519;43.318;21.898;2022-09-09T15:31:57;25.5;80.0
21121;DHT22;12519;43.318;21.898;2022-09-09T15:36:39;25.4;80.0
21121;DHT22;12519;43.318;21.898;2022-09-09T15:41:23;25.4;80.0
21121;DHT22;12519;43.318;21.898;2022-09-09T15:46:31;25.4;81.0
21121;DHT22;12519;43.318;21.898;2022-09-09T15:51:12;25.4;81.0
21121;DHT22;12519;43.318;21.898;2022-09-09T15:55:55;25.4;81.0
21121;DHT22;12519;43.318;21.898;2022-09-09T16:00:32;25.4;80.0
21121;DHT22;12519;43.318;21.898;2022-09-09T16:05:09;25.4;80.0
21121;DHT22;12519;43.318;21.898;2022-09-09T16:09:46;25.5;80.0
21121;DHT22;12519;43.318;21.898;2022-09-09T16:14:23;25.5;80.0
21121;DHT22;12519;43.318;21.898;2022-09-09T16:19:09;25.4;80.0
21121;DHT22;12519;43.318;21.898;2022-09-09T16:23:52;25.4;80.0
21121;DHT22;12519;43.318;21.898;2022-09-09T16:28:29;25.4;81.0
21121;DHT22;12519;43.318;21.898;2022-09-09T16:33:05;25.4;81.0
21121;DHT22;12519;43.318;21.898;2022-09-09T16:37:42;25.2;81.0
21121;DHT22;12519;43.318;21.898;2022-09-09T16:42:18;25.2;81.0
21121;DHT22;12519;43.318;21.898;2022-09-09T16:46:55;25.0;81.0
21121;DHT22;12519;43.318;21.898;2022-09-09T16:51:39;25.0;81.0
21121;DHT22;12519;43.318;21.898;2022-09-09T16:56:25;25.0;81.0
21121;DHT22;12519;43.318;21.898;2022-09-09T17:01:05;24.9;82.0
21121;DHT22;12519;43.318;21.898;2022-09-09T17:05:42;24.9;82.0
21121;DHT22;12519;43.318;21.898;2022-09-09T17:10:19;24.8;82.0
21121;DHT22;12519;43.318;21.898;2022-09-09T17:14:56;24.8;82.0
21121;DHT22;12519;43.318;21.898;2022-09-09T17:19:33;24.9;82.0
21121;DHT22;12519;43.318;21.898;2022-09-09T17:24:11;24.9;82.0
21121;DHT22;12519;43.318;21.898;2022-09-09T17:28:48;25.0;83.0
21121;DHT22;12519;43.318;21.898;2022-09-09T17:33:25;25.0;83.0
21121;DHT22;12519;43.318;21.898;2022-09-09T17:38:02;24.9;83.0
21121;DHT22;12519;43.318;21.898;2022-09-09T17:42:38;24.9;83.0
21121;DHT22;12519;43.318;21.898;2022-09-09T17:47:15;24.8;83.0
21121;DHT22;12519;43.318;21.898;2022-09-09T17:51:52;24.8;83.0
21121;DHT22;12519;43.318;21.898;2022-09-09T17:56:33;24.8;83.0
21121;DHT22;12519;43.318;21.898;2022-09-09T18:01:21;24.7;84.0
21121;DHT22;12519;43.318;21.898;2022-09-09T18:06:14;24.7;84.0
21121;DHT22;12519;43.318;21.898;2022-09-09T18:11:05;24.6;84.0
21121;DHT22;12519;43.318;21.898;2022-09-09T18:15:44;24.6;84.0
21121;DHT22;12519;43.318;21.898;2022-09-09T18:20:21;24.6;84.0
21121;DHT22;12519;43.318;21.898;2022-09-09T18:24:58;24.6;84.0
21121;DHT22;12519;43.318;21.898;2022-09-09T18:29:36;24.7;85.0
21121;DHT22;12519;43.318;21.898;2022-09-09T18:34:19;24.7;85.0
21121;DHT22;12519;43.318;21.898;2022-09-09T18:39:04;24.6;85.0
21121;DHT22;12519;43.318;21.898;2022-09-09T18:43:44;24.6;85.0
21121;DHT22;12519;43.318;21.898;2022-09-09T18:48:21;24.6;86.0
21121;DHT22;12519;43.318;21.898;2022-09-09T18:52:58;24.6;86.0
21121;DHT22;12519;43.318;21.898;2022-09-09T18:57:35;24.5;86.0
21121;DHT22;12519;43.318;21.898;2022-09-09T19:02:13;24.5;86.0
21121;DHT22;12519;43.318;21.898;2022-09-09T19:06:51;24.4;86.0
21121;DHT22;12519;43.318;21.898;2022-09-09T19:11:28;24.4;86.0
21121;DHT22;12519;43.318;21.898;2022-09-09T19:16:10;24.4;86.0
21121;DHT22;12519;43.318;21.898;2022-09-09T19:20:49;24.4;86.0
21121;DHT22;12519;43.318;21.898;2022-09-09T19:25:26;24.4;86.0
21121;DHT22;12519;43.318;21.898;2022-09-09T19:30:06;24.5;86.0
21121;DHT22;12519;43.318;21.898;2022-09-09T19:34:44;24.5;86.0
21121;DHT22;12519;43.318;21.898;2022-09-09T19:39:21;24.4;86.0
21121;DHT22;12519;43.318;21.898;2022-09-09T19:44:05;24.4;86.0
21121;DHT22;12519;43.318;21.898;2022-09-09T19:48:49;24.3;86.0
21121;DHT22;12519;43.318;21.898;2022-09-09T19:53:25;24.3;86.0
21121;DHT22;12519;43.318;21.898;2022-09-09T19:58:02;24.3;87.0
21121;DHT22;12519;43.318;21.898;2022-09-09T20:02:39;24.3;87.0
21121;DHT22;12519;43.318;21.898;2022-09-09T20:07:15;24.3;87.0
21121;DHT22;12519;43.318;21.898;2022-09-09T20:11:52;24.3;87.0
21121;DHT22;12519;43.318;21.898;2022-09-09T20:16:32;24.3;87.0
21121;DHT22;12519;43.318;21.898;2022-09-09T20:21:17;24.3;87.0
21121;DHT22;12519;43.318;21.898;2022-09-09T20:26:06;24.3;87.0
21121;DHT22;12519;43.318;21.898;2022-09-09T20:40:09;24.1;88.0
21121;DHT22;12519;43.318;21.898;2022-09-09T20:44:47;24.1;88.0
21121;DHT22;12519;43.318;21.898;2022-09-09T20:49:25;24.1;88.0
21121;DHT22;12519;43.318;21.898;2022-09-09T20:54:18;24.1;88.0
21121;DHT22;12519;43.318;21.898;2022-09-09T20:58:56;23.8;89.0
21121;DHT22;12519;43.318;21.898;2022-09-09T21:03:36;23.8;89.0
21121;DHT22;12519;43.318;21.898;2022-09-09T21:08:13;23.6;90.0
21121;DHT22;12519;43.318;21.898;2022-09-09T21:12:50;23.6;90.0
21121;DHT22;12519;43.318;21.898;2022-09-09T21:17:27;23.7;90.0
21121;DHT22;12519;43.318;21.898;2022-09-09T21:22:04;23.7;90.0
21121;DHT22;12519;43.318;21.898;2022-09-09T21:26:41;23.7;90.0
21121;DHT22;12519;43.318;21.898;2022-09-09T21:31:20;23.8;90.0
21121;DHT22;12519;43.318;21.898;2022-09-09T21:36:09;23.8;90.0
21121;DHT22;12519;43.318;21.898;2022-09-09T21:40:48;24.0;89.0
21121;DHT22;12519;43.318;21.898;2022-09-09T21:45:25;24.0;89.0
21121;DHT22;12519;43.318;21.898;2022-09-09T21:50:02;24.2;89.0
21121;DHT22;12519;43.318;21.898;2022-09-09T21:54:39;24.2;89.0
21121;DHT22;12519;43.318;21.898;2022-09-09T21:59:16;24.4;88.0
21121;DHT22;12519;43.318;21.898;2022-09-09T22:03:53;24.4;88.0
21121;DHT22;12519;43.318;21.898;2022-09-09T22:08:30;24.5;87.0
21121;DHT22;12519;43.318;21.898;2022-09-09T22:13:07;24.5;87.0
21121;DHT22;12519;43.318;21.898;2022-09-09T22:17:44;24.6;87.0
21121;DHT22;12519;43.318;21.898;2022-09-09T22:22:21;24.6;87.0
21121;DHT22;12519;43.318;21.898;2022-09-09T22:26:57;24.6;87.0
21121;DHT22;12519;43.318;21.898;2022-09-09T22:31:35;24.6;87.0
21121;DHT22;12519;43.318;21.898;2022-09-09T22:36:12;24.6;87.0
21121;DHT22;12519;43.318;21.898;2022-09-09T22:40:49;24.6;87.0
21121;DHT22;12519;43.318;21.898;2022-09-09T22:45:25;24.6;87.0
21121;DHT22;12519;43.318;21.898;2022-09-09T22:50:03;24.6;86.0
21121;DHT22;12519;43.318;21.898;2022-09-09T22:54:42;24.6;86.0
21121;DHT22;12519;43.318;21.898;2022-09-09T22:59:19;24.6;86.0
21121;DHT22;12519;43.318;21.898;2022-09-09T23:03:58;24.6;86.0
21121;DHT22;12519;43.318;21.898;2022-09-09T23:08:37;24.5;86.0
21121;DHT22;12519;43.318;21.898;2022-09-09T23:13:13;24.5;86.0
21121;DHT22;12519;43.318;21.898;2022-09-09T23:17:50;24.4;86.0
21121;DHT22;12519;43.318;21.898;2022-09-09T23:22:28;24.4;86.0
21121;DHT22;12519;43.318;21.898;2022-09-09T23:27:06;24.4;86.0
21121;DHT22;12519;43.318;21.898;2022-09-09T23:31:45;24.3;87.0
21121;DHT22;12519;43.318;21.898;2022-09-09T23:36:25;24.3;87.0
21121;DHT22;12519;43.318;21.898;2022-09-09T23:41:11;24.4;86.0
21121;DHT22;12519;43.318;21.898;2022-09-09T23:45:56;24.4;86.0
21121;DHT22;12519;43.318;21.898;2022-09-09T23:50:33;24.4;86.0
21121;DHT22;12519;43.318;21.898;2022-09-09T23:55:10;24.4;86.0
21121;DHT22;12519;43.318;21.898;2022-09-09T23:59:47;24.4;86.0
